sensor_id;sensor_type;location;lat;lon;timestamp;pressure;altitude;pressure_sealevel;temperature;humidity
54194;BME280;40102;50.906;6.972;2023-04-03T00:01:50;102210.44;;;7.61;56.64
54194;BME280;40102;50.906;6.972;2023-04-03T00:04:15;102214.78;;;7.67;56.50
54194;BME280;40102;50.906;6.972;2023-04-03T00:06:41;102216.56;;;7.66;56.40
54194;BME280;40102;50.906;6.972;2023-04-03T00:09:06;102221.00;;;7.66;56.76
54194;BME280;40102;50.906;6.972;2023-04-03T00:11:31;102222.75;;;7.67;56.61
54194;BME280;40102;50.906;6.972;2023-04-03T00:13:57;102216.66;;;7.62;56.56
54194;BME280;40102;50.906;6.972;2023-04-03T00:16:22;102220.31;;;7.56;56.21
54194;BME280;40102;50.906;6.972;2023-04-03T00:18:47;102223.88;;;7.55;56.14
54194;BME280;40102;50.906;6.972;2023-04-03T00:21:13;102227.41;;;7.56;56.16
54194;BME280;40102;50.906;6.972;2023-04-03T00:23:39;102219.44;;;7.56;56.34
54194;BME280;40102;50.906;6.972;2023-04-03T00:26:05;102221.22;;;7.55;56.32
54194;BME280;40102;50.906;6.972;2023-04-03T00:28:31;102218.66;;;7.49;56.05
54194;BME280;40102;50.906;6.972;2023-04-03T00:30:56;102220.47;;;7.48;56.19
54194;BME280;40102;50.906;6.972;2023-04-03T00:33:21;102224.06;;;7.46;56.10
54194;BME280;40102;50.906;6.972;2023-04-03T00:35:47;102224.97;;;7.45;56.16
54194;BME280;40102;50.906;6.972;2023-04-03T00:38:14;102224.19;;;7.38;56.49
54194;BME280;40102;50.906;6.972;2023-04-03T00:40:43;102215.38;;;7.35;56.25
54194;BME280;40102;50.906;6.972;2023-04-03T00:43:14;102221.59;;;7.35;56.82
54194;BME280;40102;50.906;6.972;2023-04-03T00:45:42;102223.38;;;7.35;56.61
54194;BME280;40102;50.906;6.972;2023-04-03T00:48:12;102222.56;;;7.31;56.61
54194;BME280;40102;50.906;6.972;2023-04-03T00:50:40;102228.00;;;7.25;56.29
54194;BME280;40102;50.906;6.972;2023-04-03T00:53:09;102219.22;;;7.20;56.61
54194;BME280;40102;50.906;6.972;2023-04-03T00:55:37;102219.22;;;7.20;56.73
54194;BME280;40102;50.906;6.972;2023-04-03T00:58:03;102212.13;;;7.19;56.49
54194;BME280;40102;50.906;6.972;2023-04-03T01:00:30;102218.31;;;7.21;56.46
54194;BME280;40102;50.906;6.972;2023-04-03T01:02:55;102217.47;;;7.19;56.43
54194;BME280;40102;50.906;6.972;2023-04-03T01:05:21;102218.34;;;7.20;56.59
54194;BME280;40102;50.906;6.972;2023-04-03T01:07:48;102216.56;;;7.20;56.17
54194;BME280;40102;50.906;6.972;2023-04-03T01:10:16;102218.34;;;7.20;56.22
54194;BME280;40102;50.906;6.972;2023-04-03T01:12:44;102214.75;;;7.21;56.24
54194;BME280;40102;50.906;6.972;2023-04-03T01:15:16;102217.47;;;7.19;56.32
54194;BME280;40102;50.906;6.972;2023-04-03T01:17:46;102222.78;;;7.19;56.36
54194;BME280;40102;50.906;6.972;2023-04-03T01:23:03;102205.06;;;7.18;56.46
54194;BME280;40102;50.906;6.972;2023-04-03T01:25:33;102202.41;;;7.18;56.40
54194;BME280;40102;50.906;6.972;2023-04-03T01:27:58;102207.72;;;7.18;56.40
54194;BME280;40102;50.906;6.972;2023-04-03T01:30:30;102204.31;;;7.10;56.17
54194;BME280;40102;50.906;6.972;2023-04-03T01:32:56;102194.75;;;7.00;55.61
54194;BME280;40102;50.906;6.972;2023-04-03T01:35:21;102208.94;;;6.99;56.51
54194;BME280;40102;50.906;6.972;2023-04-03T01:37:47;102208.06;;;6.98;56.58
54194;BME280;40102;50.906;6.972;2023-04-03T01:40:12;102213.38;;;7.00;56.82
54194;BME280;40102;50.906;6.972;2023-04-03T01:42:38;102214.19;;;7.03;56.70
54194;BME280;40102;50.906;6.972;2023-04-03T01:45:03;102215.88;;;7.07;56.77
54194;BME280;40102;50.906;6.972;2023-04-03T01:47:29;102214.09;;;7.08;56.91
54194;BME280;40102;50.906;6.972;2023-04-03T01:49:54;102204.28;;;7.11;56.67
54194;BME280;40102;50.906;6.972;2023-04-03T01:52:20;102216.78;;;7.08;56.62
54194;BME280;40102;50.906;6.972;2023-04-03T01:54:45;102213.22;;;7.07;56.57
54194;BME280;40102;50.906;6.972;2023-04-03T01:57:11;102212.41;;;7.04;56.46
54194;BME280;40102;50.906;6.972;2023-04-03T01:59:38;102207.16;;;6.99;56.43
54194;BME280;40102;50.906;6.972;2023-04-03T02:02:03;102212.53;;;6.96;56.25
54194;BME280;40102;50.906;6.972;2023-04-03T02:04:28;102215.19;;;6.96;56.21
54194;BME280;40102;50.906;6.972;2023-04-03T02:06:54;102219.59;;;6.99;56.26
54194;BME280;40102;50.906;6.972;2023-04-03T02:09:19;102216.94;;;6.99;56.16
54194;BME280;40102;50.906;6.972;2023-04-03T02:11:44;102216.94;;;6.99;56.08
54194;BME280;40102;50.906;6.972;2023-04-03T02:14:10;102216.03;;;6.98;56.13
54194;BME280;40102;50.906;6.972;2023-04-03T02:16:35;102217.88;;;6.95;56.00
54194;BME280;40102;50.906;6.972;2023-04-03T02:19:01;102201.97;;;6.92;56.18
54194;BME280;40102;50.906;6.972;2023-04-03T02:21:26;102217.97;;;6.90;56.23
54194;BME280;40102;50.906;6.972;2023-04-03T02:23:51;102218.00;;;6.89;56.04
54194;BME280;40102;50.906;6.972;2023-04-03T02:26:17;102210.91;;;6.88;56.03
54194;BME280;40102;50.906;6.972;2023-04-03T02:28:42;102232.22;;;6.86;56.17
54194;BME280;40102;50.906;6.972;2023-04-03T02:31:08;102224.31;;;6.81;56.10
54194;BME280;40102;50.906;6.972;2023-04-03T02:33:35;102223.47;;;6.78;56.11
54194;BME280;40102;50.906;6.972;2023-04-03T02:36:04;102230.59;;;6.76;56.13
54194;BME280;40102;50.906;6.972;2023-04-03T02:38:30;102228.91;;;6.72;56.20
54194;BME280;40102;50.906;6.972;2023-04-03T02:41:10;102228.91;;;6.72;56.32
54194;BME280;40102;50.906;6.972;2023-04-03T02:43:36;102225.31;;;6.74;56.26
54194;BME280;40102;50.906;6.972;2023-04-03T02:46:01;102225.41;;;6.68;56.24
54194;BME280;40102;50.906;6.972;2023-04-03T02:48:27;102219.28;;;6.63;56.28
54194;BME280;40102;50.906;6.972;2023-04-03T02:50:53;102229.94;;;6.62;56.44
54194;BME280;40102;50.906;6.972;2023-04-03T02:53:18;102235.25;;;6.62;56.46
54194;BME280;40102;50.906;6.972;2023-04-03T02:55:44;102232.59;;;6.62;56.54
54194;BME280;40102;50.906;6.972;2023-04-03T02:58:10;102229.91;;;6.65;56.70
54194;BME280;40102;50.906;6.972;2023-04-03T03:00:36;102230.81;;;6.64;56.46
54194;BME280;40102;50.906;6.972;2023-04-03T03:03:01;102229.09;;;6.58;56.53
54194;BME280;40102;50.906;6.972;2023-04-03T03:05:27;102231.75;;;6.60;56.71
54194;BME280;40102;50.906;6.972;2023-04-03T03:07:52;102236.22;;;6.56;56.68
54194;BME280;40102;50.906;6.972;2023-04-03T03:10:18;102240.66;;;6.57;56.63
54194;BME280;40102;50.906;6.972;2023-04-03T03:12:44;102236.28;;;6.53;56.62
54194;BME280;40102;50.906;6.972;2023-04-03T03:15:12;102233.63;;;6.53;56.86
54194;BME280;40102;50.906;6.972;2023-04-03T03:17:38;102233.63;;;6.53;56.78
54194;BME280;40102;50.906;6.972;2023-04-03T03:20:06;102236.38;;;6.47;57.09
54194;BME280;40102;50.906;6.972;2023-04-03T03:22:34;102234.63;;;6.44;56.97
54194;BME280;40102;50.906;6.972;2023-04-03T03:25:00;102239.09;;;6.42;57.21
54194;BME280;40102;50.906;6.972;2023-04-03T03:27:26;102232.91;;;6.42;57.31
54194;BME280;40102;50.906;6.972;2023-04-03T03:29:51;102233.81;;;6.39;57.08
54194;BME280;40102;50.906;6.972;2023-04-03T03:32:17;102232.97;;;6.37;57.19
54194;BME280;40102;50.906;6.972;2023-04-03T03:34:42;102237.47;;;6.32;57.02
54194;BME280;40102;50.906;6.972;2023-04-03T03:37:07;102224.25;;;6.28;56.77
54194;BME280;40102;50.906;6.972;2023-04-03T03:39:33;102230.47;;;6.27;57.20
54194;BME280;40102;50.906;6.972;2023-04-03T03:41:58;102230.47;;;6.27;57.39
54194;BME280;40102;50.906;6.972;2023-04-03T03:44:24;102229.59;;;6.26;57.19
54194;BME280;40102;50.906;6.972;2023-04-03T03:46:49;102236.63;;;6.29;56.70
54194;BME280;40102;50.906;6.972;2023-04-03T03:49:14;102229.59;;;6.25;57.05
54194;BME280;40102;50.906;6.972;2023-04-03T03:51:40;102233.13;;;6.27;57.06
54194;BME280;40102;50.906;6.972;2023-04-03T03:54:06;102232.22;;;6.28;57.04
54194;BME280;40102;50.906;6.972;2023-04-03T03:56:33;102236.66;;;6.26;56.89
54194;BME280;40102;50.906;6.972;2023-04-03T03:58:58;102233.97;;;6.29;56.91
54194;BME280;40102;50.906;6.972;2023-04-03T04:01:24;102229.53;;;6.29;56.69
54194;BME280;40102;50.906;6.972;2023-04-03T04:03:49;102234.84;;;6.29;56.85
54194;BME280;40102;50.906;6.972;2023-04-03T04:06:15;102231.28;;;6.30;56.75
54194;BME280;40102;50.906;6.972;2023-04-03T04:08:41;102233.94;;;6.30;56.82
54194;BME280;40102;50.906;6.972;2023-04-03T04:11:07;102233.09;;;6.28;56.70
54194;BME280;40102;50.906;6.972;2023-04-03T04:13:33;102229.53;;;6.29;56.74
54194;BME280;40102;50.906;6.972;2023-04-03T04:15:58;102226.91;;;6.28;56.90
54194;BME280;40102;50.906;6.972;2023-04-03T04:18:24;102233.94;;;6.30;56.68
54194;BME280;40102;50.906;6.972;2023-04-03T04:20:49;102238.44;;;6.27;56.82
54194;BME280;40102;50.906;6.972;2023-04-03T04:23:18;102239.38;;;6.23;56.66
54194;BME280;40102;50.906;6.972;2023-04-03T04:25:45;102236.75;;;6.20;56.50
54194;BME280;40102;50.906;6.972;2023-04-03T04:28:11;102235.03;;;6.15;56.33
54194;BME280;40102;50.906;6.972;2023-04-03T04:30:36;102248.31;;;6.15;56.58
54194;BME280;40102;50.906;6.972;2023-04-03T04:33:01;102243.06;;;6.12;56.75
54194;BME280;40102;50.906;6.972;2023-04-03T04:35:27;102245.66;;;6.15;56.86
54194;BME280;40102;50.906;6.972;2023-04-03T04:37:52;102247.44;;;6.15;56.90
54194;BME280;40102;50.906;6.972;2023-04-03T04:40:18;102257.22;;;6.11;56.83
54194;BME280;40102;50.906;6.972;2023-04-03T04:42:43;102253.69;;;6.12;56.96
54194;BME280;40102;50.906;6.972;2023-04-03T04:45:09;102259.00;;;6.11;56.80
54194;BME280;40102;50.906;6.972;2023-04-03T04:47:34;102254.56;;;6.13;56.91
54194;BME280;40102;50.906;6.972;2023-04-03T04:50:00;102249.28;;;6.10;56.98
54194;BME280;40102;50.906;6.972;2023-04-03T04:52:25;102254.59;;;6.10;57.00
54194;BME280;40102;50.906;6.972;2023-04-03T04:54:50;102271.41;;;6.10;57.00
54194;BME280;40102;50.906;6.972;2023-04-03T04:57:16;102267.91;;;6.07;57.09
54194;BME280;40102;50.906;6.972;2023-04-03T04:59:42;102265.31;;;6.02;56.87
54194;BME280;40102;50.906;6.972;2023-04-03T05:02:07;102270.59;;;6.05;57.00
54194;BME280;40102;50.906;6.972;2023-04-03T05:04:33;102275.88;;;6.08;56.99
54194;BME280;40102;50.906;6.972;2023-04-03T05:06:58;102278.53;;;6.08;57.39
54194;BME280;40102;50.906;6.972;2023-04-03T05:09:24;102279.44;;;6.06;56.91
54194;BME280;40102;50.906;6.972;2023-04-03T05:11:50;102279.44;;;6.06;56.99
54194;BME280;40102;50.906;6.972;2023-04-03T05:14:16;102275.09;;;6.00;56.94
54194;BME280;40102;50.906;6.972;2023-04-03T05:16:41;102284.81;;;6.01;57.07
54194;BME280;40102;50.906;6.972;2023-04-03T05:19:07;102283.91;;;6.02;57.10
54194;BME280;40102;50.906;6.972;2023-04-03T05:21:33;102279.53;;;5.98;57.05
54194;BME280;40102;50.906;6.972;2023-04-03T05:24:01;102298.06;;;6.04;57.04
54194;BME280;40102;50.906;6.972;2023-04-03T05:26:29;102294.53;;;6.04;57.05
54194;BME280;40102;50.906;6.972;2023-04-03T05:28:55;102292.78;;;6.01;56.85
54194;BME280;40102;50.906;6.972;2023-04-03T05:31:20;102294.59;;;5.98;57.00
54194;BME280;40102;50.906;6.972;2023-04-03T05:33:46;102298.16;;;5.97;57.00
54194;BME280;40102;50.906;6.972;2023-04-03T05:36:12;102298.16;;;5.95;57.15
54194;BME280;40102;50.906;6.972;2023-04-03T05:38:38;102299.91;;;5.98;57.06
54194;BME280;40102;50.906;6.972;2023-04-03T05:41:03;102301.66;;;5.99;57.19
54194;BME280;40102;50.906;6.972;2023-04-03T05:43:29;102300.75;;;6.01;57.39
54194;BME280;40102;50.906;6.972;2023-04-03T05:45:54;102304.31;;;6.00;56.93
54194;BME280;40102;50.906;6.972;2023-04-03T05:48:19;102305.19;;;6.01;57.05
54194;BME280;40102;50.906;6.972;2023-04-03T05:50:46;102308.75;;;5.98;56.98
54194;BME280;40102;50.906;6.972;2023-04-03T05:53:17;102318.34;;;6.11;64.53
54194;BME280;40102;50.906;6.972;2023-04-03T05:55:44;102314.81;;;6.75;68.29
54194;BME280;40102;50.906;6.972;2023-04-03T05:58:09;102314.56;;;6.92;63.07
54194;BME280;40102;50.906;6.972;2023-04-03T06:00:35;102316.50;;;6.82;58.91
54194;BME280;40102;50.906;6.972;2023-04-03T06:03:00;102321.19;;;6.65;57.00
54194;BME280;40102;50.906;6.972;2023-04-03T06:05:26;102321.34;;;6.53;56.92
54194;BME280;40102;50.906;6.972;2023-04-03T06:07:51;102325.97;;;6.39;56.59
54194;BME280;40102;50.906;6.972;2023-04-03T06:10:17;102324.28;;;6.32;56.75
54194;BME280;40102;50.906;6.972;2023-04-03T06:12:42;102323.44;;;6.30;56.77
54194;BME280;40102;50.906;6.972;2023-04-03T06:15:09;102325.28;;;6.23;56.76
54194;BME280;40102;50.906;6.972;2023-04-03T06:17:36;102336.88;;;6.17;56.36
54194;BME280;40102;50.906;6.972;2023-04-03T06:20:02;102332.44;;;6.16;56.93
54194;BME280;40102;50.906;6.972;2023-04-03T06:22:29;102336.00;;;6.15;56.96
54194;BME280;40102;50.906;6.972;2023-04-03T06:24:55;102335.09;;;6.18;57.78
54194;BME280;40102;50.906;6.972;2023-04-03T06:27:21;102344.72;;;6.27;57.45
54194;BME280;40102;50.906;6.972;2023-04-03T06:29:46;102340.31;;;6.24;56.70
54194;BME280;40102;50.906;6.972;2023-04-03T06:32:12;102352.75;;;6.22;56.66
54194;BME280;40102;50.906;6.972;2023-04-03T06:34:37;102345.66;;;6.23;56.85
54194;BME280;40102;50.906;6.972;2023-04-03T06:37:03;102336.81;;;6.22;56.60
54194;BME280;40102;50.906;6.972;2023-04-03T06:39:28;102330.63;;;6.22;56.66
54194;BME280;40102;50.906;6.972;2023-04-03T06:41:54;102333.31;;;6.18;56.48
54194;BME280;40102;50.906;6.972;2023-04-03T06:44:20;102329.81;;;6.15;56.45
54194;BME280;40102;50.906;6.972;2023-04-03T06:46:46;102335.09;;;6.16;56.69
54194;BME280;40102;50.906;6.972;2023-04-03T06:49:12;102333.31;;;6.17;56.75
54194;BME280;40102;50.906;6.972;2023-04-03T06:51:37;102334.25;;;6.14;56.13
54194;BME280;40102;50.906;6.972;2023-04-03T06:54:05;102331.56;;;6.17;56.73
54194;BME280;40102;50.906;6.972;2023-04-03T06:56:31;102333.28;;;6.22;56.59
54194;BME280;40102;50.906;6.972;2023-04-03T06:58:57;102338.53;;;6.25;56.54
54194;BME280;40102;50.906;6.972;2023-04-03T07:01:27;102336.88;;;6.17;56.19
54194;BME280;40102;50.906;6.972;2023-04-03T07:03:53;102338.59;;;6.22;56.45
54194;BME280;40102;50.906;6.972;2023-04-03T07:06:20;102335.09;;;6.16;55.39
54194;BME280;40102;50.906;6.972;2023-04-03T07:08:46;102345.88;;;6.04;55.31
54194;BME280;40102;50.906;6.972;2023-04-03T07:11:13;102337.00;;;6.05;56.52
54194;BME280;40102;50.906;6.972;2023-04-03T07:13:39;102336.03;;;6.12;56.70
54194;BME280;40102;50.906;6.972;2023-04-03T07:16:08;102337.63;;;6.27;56.67
54194;BME280;40102;50.906;6.972;2023-04-03T07:18:34;102342.00;;;6.31;55.48
54194;BME280;40102;50.906;6.972;2023-04-03T07:21:00;102344.66;;;6.33;55.74
54194;BME280;40102;50.906;6.972;2023-04-03T07:23:25;102341.09;;;6.34;55.36
54194;BME280;40102;50.906;6.972;2023-04-03T07:25:51;102322.75;;;6.12;54.34
54194;BME280;40102;50.906;6.972;2023-04-03T07:28:18;102350.94;;;6.26;54.90
54194;BME280;40102;50.906;6.972;2023-04-03T07:30:52;102350.94;;;6.26;55.10
54194;BME280;40102;50.906;6.972;2023-04-03T07:33:20;102358.78;;;6.36;55.31
54194;BME280;40102;50.906;6.972;2023-04-03T07:35:46;102347.38;;;6.28;54.09
54194;BME280;40102;50.906;6.972;2023-04-03T07:38:12;102357.16;;;6.23;55.31
54194;BME280;40102;50.906;6.972;2023-04-03T07:40:38;102363.28;;;6.31;55.80
54194;BME280;40102;50.906;6.972;2023-04-03T07:43:04;102357.84;;;6.40;55.59
54194;BME280;40102;50.906;6.972;2023-04-03T07:45:30;102358.59;;;6.52;55.21
54194;BME280;40102;50.906;6.972;2023-04-03T07:47:56;102360.44;;;6.45;53.52
54194;BME280;40102;50.906;6.972;2023-04-03T07:50:21;102361.47;;;6.33;53.71
54194;BME280;40102;50.906;6.972;2023-04-03T07:52:47;102358.00;;;6.27;54.10
54194;BME280;40102;50.906;6.972;2023-04-03T07:55:13;102361.50;;;6.30;55.02
54194;BME280;40102;50.906;6.972;2023-04-03T07:57:38;102364.91;;;6.43;55.48
54194;BME280;40102;50.906;6.972;2023-04-03T08:00:06;102365.69;;;6.51;55.17
54194;BME280;40102;50.906;6.972;2023-04-03T08:02:32;102367.31;;;6.61;54.81
54194;BME280;40102;50.906;6.972;2023-04-03T08:04:58;102370.00;;;6.60;53.10
54194;BME280;40102;50.906;6.972;2023-04-03T08:07:24;102363.06;;;6.48;52.98
54194;BME280;40102;50.906;6.972;2023-04-03T08:09:50;102365.00;;;6.35;53.35
54194;BME280;40102;50.906;6.972;2023-04-03T08:12:15;102362.34;;;6.35;53.69
54194;BME280;40102;50.906;6.972;2023-04-03T08:14:41;102368.50;;;6.37;54.12
54194;BME280;40102;50.906;6.972;2023-04-03T08:17:06;102367.56;;;6.43;53.81
54194;BME280;40102;50.906;6.972;2023-04-03T08:19:34;102363.94;;;6.48;53.80
54194;BME280;40102;50.906;6.972;2023-04-03T08:22:00;102359.44;;;6.54;53.80
54194;BME280;40102;50.906;6.972;2023-04-03T08:24:28;102370.88;;;6.60;53.84
54194;BME280;40102;50.906;6.972;2023-04-03T08:26:53;102370.13;;;6.49;53.26
54194;BME280;40102;50.906;6.972;2023-04-03T08:29:19;102365.75;;;6.45;53.56
54194;BME280;40102;50.906;6.972;2023-04-03T08:31:46;102365.81;;;6.40;52.73
54194;BME280;40102;50.906;6.972;2023-04-03T08:34:12;102373.72;;;6.46;53.78
54194;BME280;40102;50.906;6.972;2023-04-03T08:36:39;102374.53;;;6.53;53.56
54194;BME280;40102;50.906;6.972;2023-04-03T08:39:05;102378.88;;;6.59;53.44
54194;BME280;40102;50.906;6.972;2023-04-03T08:41:42;102385.91;;;6.64;53.43
54194;BME280;40102;50.906;6.972;2023-04-03T08:50:02;102384.13;;;6.65;51.97
54194;BME280;40102;50.906;6.972;2023-04-03T08:52:39;102387.63;;;6.67;52.38
54194;BME280;40102;50.906;6.972;2023-04-03T08:55:16;102389.34;;;6.71;52.28
54194;BME280;40102;50.906;6.972;2023-04-03T08:57:45;102381.34;;;6.74;52.52
54194;BME280;40102;50.906;6.972;2023-04-03T09:02:50;102382.31;;;6.67;49.93
54194;BME280;40102;50.906;6.972;2023-04-03T09:05:32;102379.78;;;6.56;49.87
54194;BME280;40102;50.906;6.972;2023-04-03T09:10:48;102375.38;;;6.55;50.71
54194;BME280;40102;50.906;6.972;2023-04-03T09:13:30;102367.38;;;6.58;50.63
54194;BME280;40102;50.906;6.972;2023-04-03T09:16:27;102379.84;;;6.53;49.73
54194;BME280;40102;50.906;6.972;2023-04-03T09:19:34;102370.19;;;6.46;50.22
54194;BME280;40102;50.906;6.972;2023-04-03T09:22:18;102381.41;;;6.68;51.41
54194;BME280;40102;50.906;6.972;2023-04-03T09:24:50;102386.50;;;6.85;51.71
54194;BME280;40102;50.906;6.972;2023-04-03T09:27:18;102381.00;;;6.98;50.87
54194;BME280;40102;50.906;6.972;2023-04-03T09:29:44;102385.44;;;6.96;49.47
54194;BME280;40102;50.906;6.972;2023-04-03T09:32:32;102382.78;;;6.98;49.38
54194;BME280;40102;50.906;6.972;2023-04-03T09:35:04;102374.69;;;7.04;49.63
54194;BME280;40102;50.906;6.972;2023-04-03T09:37:41;102381.66;;;7.12;50.27
54194;BME280;40102;50.906;6.972;2023-04-03T09:43:08;102380.75;;;7.15;49.22
54194;BME280;40102;50.906;6.972;2023-04-03T09:45:45;102378.09;;;7.13;47.29
54194;BME280;40102;50.906;6.972;2023-04-03T09:53:48;102371.09;;;7.08;47.11
54194;BME280;40102;50.906;6.972;2023-04-03T09:58:47;102359.44;;;7.15;45.76
54194;BME280;40102;50.906;6.972;2023-04-03T10:01:36;102370.00;;;7.21;46.23
54194;BME280;40102;50.906;6.972;2023-04-03T10:04:11;102357.50;;;7.26;44.76
54194;BME280;40102;50.906;6.972;2023-04-03T10:06:40;102358.34;;;7.30;44.24
54194;BME280;40102;50.906;6.972;2023-04-03T10:09:22;102361.81;;;7.33;44.59
54194;BME280;40102;50.906;6.972;2023-04-03T10:12:07;102360.78;;;7.42;45.45
54194;BME280;40102;50.906;6.972;2023-04-03T10:14:38;102352.75;;;7.45;44.64
54194;BME280;40102;50.906;6.972;2023-04-03T10:17:22;102353.59;;;7.48;43.78
54194;BME280;40102;50.906;6.972;2023-04-03T10:19:55;102350.84;;;7.53;43.19
54194;BME280;40102;50.906;6.972;2023-04-03T10:22:36;102350.91;;;7.50;42.97
54194;BME280;40102;50.906;6.972;2023-04-03T10:27:48;102338.41;;;7.54;43.66
54194;BME280;40102;50.906;6.972;2023-04-03T10:43:47;102329.47;;;7.58;42.04
54194;BME280;40102;50.906;6.972;2023-04-03T10:55:30;102336.94;;;7.85;39.91
54194;BME280;40102;50.906;6.972;2023-04-03T10:57:37;102324.50;;;7.86;40.37
54194;BME280;40102;50.906;6.972;2023-04-03T11:00:13;102335.03;;;7.92;40.21
54194;BME280;40102;50.906;6.972;2023-04-03T11:03:11;102322.41;;;8.01;40.41
54194;BME280;40102;50.906;6.972;2023-04-03T11:05:43;102328.69;;;7.99;38.72
54194;BME280;40102;50.906;6.972;2023-04-03T11:10:48;102318.78;;;8.05;38.94
54194;BME280;40102;50.906;6.972;2023-04-03T11:13:26;102316.03;;;8.10;39.00
54194;BME280;40102;50.906;6.972;2023-04-03T11:15:57;102319.41;;;8.18;37.82
54194;BME280;40102;50.906;6.972;2023-04-03T11:18:28;102307.94;;;8.15;35.82
54194;BME280;40102;50.906;6.972;2023-04-03T11:21:07;102315.94;;;8.15;36.93
54194;BME280;40102;50.906;6.972;2023-04-03T11:23:36;102318.53;;;8.18;36.27
54194;BME280;40102;50.906;6.972;2023-04-03T11:26:16;102312.44;;;8.12;35.54
54194;BME280;40102;50.906;6.972;2023-04-03T11:28:42;102302.56;;;8.16;36.36
54194;BME280;40102;50.906;6.972;2023-04-03T11:31:19;102295.34;;;8.23;36.74
54194;BME280;40102;50.906;6.972;2023-04-03T11:33:58;102293.28;;;8.37;35.94
54194;BME280;40102;50.906;6.972;2023-04-03T11:36:58;102286.78;;;8.50;36.83
54194;BME280;40102;50.906;6.972;2023-04-03T11:39:38;102291.78;;;8.64;37.22
54194;BME280;40102;50.906;6.972;2023-04-03T11:42:16;102281.66;;;8.80;37.55
54194;BME280;40102;50.906;6.972;2023-04-03T11:44:42;102276.19;;;8.84;35.80
54194;BME280;40102;50.906;6.972;2023-04-03T11:47:10;102278.00;;;8.84;35.90
54194;BME280;40102;50.906;6.972;2023-04-03T11:49:55;102266.56;;;8.79;37.41
54194;BME280;40102;50.906;6.972;2023-04-03T12:16:28;102234.63;;;9.44;34.78
54194;BME280;40102;50.906;6.972;2023-04-03T12:19:31;102237.78;;;9.59;35.92
54194;BME280;40102;50.906;6.972;2023-04-03T12:24:27;102235.84;;;9.95;33.86
54194;BME280;40102;50.906;6.972;2023-04-03T12:27:20;102220.47;;;10.03;34.29
54194;BME280;40102;50.906;6.972;2023-04-03T12:29:54;102234.53;;;10.10;33.20
54194;BME280;40102;50.906;6.972;2023-04-03T12:46:49;102219.16;;;10.74;32.88
54194;BME280;40102;50.906;6.972;2023-04-03T12:51:48;102216.94;;;10.87;33.71
54194;BME280;40102;50.906;6.972;2023-04-03T12:56:40;102214.47;;;11.07;31.70
54194;BME280;40102;50.906;6.972;2023-04-03T12:59:23;102204.22;;;11.20;32.91
54194;BME280;40102;50.906;6.972;2023-04-03T13:01:59;102204.56;;;11.35;32.80
54194;BME280;40102;50.906;6.972;2023-04-03T13:04:30;102193.34;;;11.24;31.45
54194;BME280;40102;50.906;6.972;2023-04-03T13:06:56;102210.06;;;11.31;33.93
54194;BME280;40102;50.906;6.972;2023-04-03T13:09:28;102203.84;;;11.55;32.90
54194;BME280;40102;50.906;6.972;2023-04-03T13:12:03;102210.78;;;11.86;32.90
54194;BME280;40102;50.906;6.972;2023-04-03T13:14:32;102210.00;;;12.29;32.02
54194;BME280;40102;50.906;6.972;2023-04-03T13:17:14;102194.50;;;12.59;32.83
54194;BME280;40102;50.906;6.972;2023-04-03T13:19:42;102184.44;;;12.86;31.68
54194;BME280;40102;50.906;6.972;2023-04-03T13:24:45;102177.75;;;13.57;30.67
54194;BME280;40102;50.906;6.972;2023-04-03T13:27:12;102181.72;;;13.69;32.03
54194;BME280;40102;50.906;6.972;2023-04-03T13:29:38;102169.59;;;13.79;29.98
54194;BME280;40102;50.906;6.972;2023-04-03T13:32:05;102175.34;;;13.90;31.42
54194;BME280;40102;50.906;6.972;2023-04-03T13:34:41;102171.06;;;14.05;30.62
54194;BME280;40102;50.906;6.972;2023-04-03T13:37:20;102164.38;;;14.13;29.29
54194;BME280;40102;50.906;6.972;2023-04-03T13:42:35;102162.84;;;14.08;30.47
54194;BME280;40102;50.906;6.972;2023-04-03T13:45:23;102172.13;;;14.38;30.10
54194;BME280;40102;50.906;6.972;2023-04-03T13:47:50;102162.53;;;14.51;31.74
54194;BME280;40102;50.906;6.972;2023-04-03T13:50:20;102169.31;;;14.77;29.31
54194;BME280;40102;50.906;6.972;2023-04-03T13:53:01;102160.06;;;14.83;28.85
54194;BME280;40102;50.906;6.972;2023-04-03T13:55:28;102153.56;;;14.87;30.97
54194;BME280;40102;50.906;6.972;2023-04-03T14:00:34;102143.31;;;15.45;31.41
54194;BME280;40102;50.906;6.972;2023-04-03T14:03:12;102146.53;;;15.85;29.18
54194;BME280;40102;50.906;6.972;2023-04-03T14:05:38;102143.00;;;16.16;29.42
54194;BME280;40102;50.906;6.972;2023-04-03T14:08:03;102136.28;;;15.92;26.69
54194;BME280;40102;50.906;6.972;2023-04-03T14:10:30;102143.16;;;15.48;27.44
54194;BME280;40102;50.906;6.972;2023-04-03T14:12:55;102136.59;;;15.37;28.46
54194;BME280;40102;50.906;6.972;2023-04-03T14:15:27;102148.41;;;15.67;29.85
54194;BME280;40102;50.906;6.972;2023-04-03T14:17:53;102136.81;;;16.14;29.59
54194;BME280;40102;50.906;6.972;2023-04-03T14:20:23;102126.00;;;16.45;28.09
54194;BME280;40102;50.906;6.972;2023-04-03T14:22:48;102121.78;;;16.71;28.33
54194;BME280;40102;50.906;6.972;2023-04-03T14:25:15;102115.16;;;17.07;27.61
54194;BME280;40102;50.906;6.972;2023-04-03T14:27:44;102125.13;;;17.35;28.55
54194;BME280;40102;50.906;6.972;2023-04-03T14:30:20;102114.16;;;17.66;27.47
54194;BME280;40102;50.906;6.972;2023-04-03T14:32:46;102116.38;;;17.74;24.73
54194;BME280;40102;50.906;6.972;2023-04-03T14:35:16;102110.25;;;17.28;25.68
54194;BME280;40102;50.906;6.972;2023-04-03T14:37:42;102113.91;;;17.12;25.54
54194;BME280;40102;50.906;6.972;2023-04-03T14:40:11;102112.44;;;17.07;26.70
54194;BME280;40102;50.906;6.972;2023-04-03T14:42:38;102111.03;;;17.44;26.58
54194;BME280;40102;50.906;6.972;2023-04-03T14:45:06;102116.06;;;17.64;26.68
54194;BME280;40102;50.906;6.972;2023-04-03T14:47:33;102107.88;;;17.80;27.43
54194;BME280;40102;50.906;6.972;2023-04-03T14:50:03;102112.59;;;17.91;25.05
54194;BME280;40102;50.906;6.972;2023-04-03T14:52:34;102110.88;;;17.75;25.60